Accueil
METAR-TAF:

METAR-TAF

Aéroports :

Aéroport d'Osorno

Osorno, Chili

latitude: 40-36-41S, longitude: 73-03-38W, altitude: 57 m

Observation

Le bulletin a été fait il y a 17 minutes, à 10:00 UTC
Vent 2 kt de direction variable
Température 8°C
Humidité 93%
Pression 1021 hPa
Visibilité 10 km ou plus
pas de nuages en-dessous de 1500 mètres et pas de cumulonimbus.

METAR: SCJO 041000Z AUTO VRB02KT CAVOK 08/07 Q1021

Heure: 07:17 (10:17 UTC)

Prévision

Le bulletin a été fait il y a 2 minutes, à 10:15 UTC
Prévision valable du 03 à 12 UTC au 03 à 24 UTC
Vent 5 kt de sud-ouest
Visibilité 10 km ou plus
pas de nuages en-dessous de 1500 mètres et pas de cumulonimbus.
Evoluant progressivement
du 03 à 15 UTC au 03 à 17 UTC
Vent 15 kt de sud

TAF: SCJO 031015Z 0312/0324 23005KT CAVOK TN10/0312Z TX23/0319Z BECMG 0315/0317 18015KT

Observations et prévisions météorologiques de plus de 4000 aéroports (messages METAR et TAF).

Les stations disponibles sont représentées par des disques jaunes et rouges sur la carte.

Passer la souris dessus pour voir le nom de la station.

Cliquer dessus pour voir les observations et prévisions météorologiques.

Pour changer de carte: cliquez sur les boutons verts avec une croix noire pour zoomer, sur le bouton vert avec un tiret pour effectuer un zoom arrière, ou sur les flèches vertes pour les cartes adjacentes.


METAR-TAF: